Davenport, IA

1:16 PM CDT on April 29, 2017 (GMT -0500)
Ridgeview | | Change Station

Elev 735 ft 41.59 °N, 90.60 °W | Updated 19 seconds ago

Rain
Rain Mist
43.0 °F
Feels Like 36 °F
N
13.0
Wind Variable Wind from NE

Today
High -- | Low -- °F
--% Chance of Precip.
Yesterday
High -- | Low -- °F
Precip. -- in
Pressure 30.09 in
Visibility 3.0 miles
Clouds Overcast 7000 ft
Windchill 36 °F
Dew Point 42 °F
Humidity 98%
Rainfall 0.36 in
Snow Depth Not available.
6:01 AM 7:58 PM
Waxing Crescent, 15% visible
METAR KDVN 291752Z AUTO 06020G27KT 3SM RA BR OVC070 06/04 A3008 RMK AO2 PK WND 06027/1745 PRESFR SLP189 P0016 60023 T00560039 10083 20056 50011
Pressure 30.09 in
Visibility 3.0 miles
Clouds Overcast 7000 ft
Windchill 36 °F
Dew Point 42 °F
Humidity 98%
Rainfall 0.36 in
Snow Depth Not available.
6:01 AM 7:58 PM
Waxing Crescent, 15% visible
METAR KDVN 291752Z AUTO 06020G27KT 3SM RA BR OVC070 06/04 A3008 RMK AO2 PK WND 06027/1745 PRESFR SLP189 P0016 60023 T00560039 10083 20056 50011

Get Severe Weather Alerts

Thanks for signing up!

Be on the lookout for a verification email in your inbox.

You'll start receiving the daily forecast at 8 AM.

×

10-Day Weather Forecast

Almanac

Astronomy

Apr. 29, 2017 Rise Set
Actual Time
Civil Twilight
Nautical Twilight
Astronomical Twilight
Moon
Length of Visible Light
Length of Day
Tomorrow will be .
, % of the Moon is Illuminated

Today's Extremes

State Highs State Lows

Community

WunderPhotos

WunderBlog® & News

Nearby

Air Quality

  Air Quality AQ Index Pollutant
Not available.

Snow Depth

Station Depth Elevation

Earthquake Activity

City Distance Mag. Time & Date
Minimum magnitude displayed is 2.5.

Coastal Water Temperatures

Place Temperature

Stations

Nearby Weather Stations

Station Location Temp. Windchill Dew Point Humidity Wind Precip. Elev Updated Type
                   

Watches & Warnings

There are currently no watches in effect.